Time;durP1;ratioP1;P1;durP2;ratioP2;P2;SDS_P1;SDS_P2;PMS_P1;PMS_P2;Temp;Humidity;BMP_temperature;BMP_pressure;BME280_temperature;BME280_humidity;BME280_pressure;Samples;Min_cycle;Max_cycle;Signal;HPM_P1;HPM_P2
2023/12/29 00:00:48;;;;;;;20.02;9.10;;;;;;;4.47;100.00;94101.47;5083747;28;20104;-70
2023/12/29 00:03:15;;;;;;;20.85;8.98;;;;;;;4.53;100.00;94096.50;5089119;28;20400;-69
2023/12/29 00:05:42;;;;;;;27.77;10.60;;;;;;;4.44;100.00;94096.75;5071441;28;20492;-70
2023/12/29 00:08:09;;;;;;;25.00;10.20;;;;;;;4.49;100.00;94092.94;5081480;28;20120;-69
2023/12/29 00:10:35;;;;;;;18.92;9.00;;;;;;;4.49;100.00;94095.66;5090409;28;20493;-70
2023/12/29 00:13:02;;;;;;;24.38;10.68;;;;;;;4.51;100.00;94085.97;5090094;28;20408;-69
2023/12/29 00:15:29;;;;;;;20.25;10.63;;;;;;;4.54;100.00;94085.22;5090118;28;20040;-70
2023/12/29 00:17:56;;;;;;;15.23;7.73;;;;;;;4.61;100.00;94081.81;5089506;28;20040;-69
2023/12/29 00:20:23;;;;;;;18.10;8.55;;;;;;;4.64;100.00;94093.88;5090244;28;20374;-69
2023/12/29 00:23:06;;;;;;;15.73;7.97;;;;;;;4.69;100.00;94080.72;5089335;28;20047;-70
2023/12/29 00:25:36;;;;;;;15.10;7.80;;;;;;;4.69;100.00;94088.88;5089718;28;20048;-69
2023/12/29 00:28:06;;;;;;;19.20;10.10;;;;;;;4.66;100.00;94100.50;5089461;28;21463;-70
2023/12/29 00:30:37;;;;;;;15.67;8.13;;;;;;;4.74;100.00;94087.75;5089923;28;20048;-69
2023/12/29 00:33:23;;;;;;;37.13;17.27;;;;;;;4.75;100.00;94081.19;5088847;28;20888;-69
2023/12/29 00:35:50;;;;;;;17.38;8.85;;;;;;;4.77;100.00;94073.44;5089495;28;20040;-69
2023/12/29 00:38:17;;;;;;;16.02;7.65;;;;;;;4.82;100.00;94070.34;5089613;28;20035;-70
2023/12/29 00:40:43;;;;;;;16.58;8.20;;;;;;;4.79;100.00;94068.41;5089345;28;20438;-72
2023/12/29 00:43:10;;;;;;;13.73;7.13;;;;;;;4.80;100.00;94068.00;5090283;28;20052;-70
2023/12/29 00:45:37;;;;;;;13.77;7.18;;;;;;;4.95;100.00;94055.31;5071875;28;20089;-70
2023/12/29 00:48:04;;;;;;;15.43;8.13;;;;;;;4.87;100.00;94061.06;5088925;28;20093;-69
2023/12/29 00:50:32;;;;;;;14.48;7.72;;;;;;;4.80;100.00;94062.56;5088464;28;20060;-69
2023/12/29 00:52:58;;;;;;;13.40;7.28;;;;;;;4.82;100.00;94062.19;5089346;28;20052;-70
2023/12/29 00:55:25;;;;;;;15.07;7.47;;;;;;;4.85;100.00;94069.59;5089343;28;20451;-71
2023/12/29 00:57:52;;;;;;;13.90;7.65;;;;;;;4.73;100.00;94059.78;5089137;28;20043;-70
2023/12/29 01:00:19;;;;;;;22.00;10.07;;;;;;;4.58;100.00;94053.41;5089498;28;20108;-70
2023/12/29 01:02:46;;;;;;;19.42;9.13;;;;;;;4.54;100.00;94036.31;5089364;28;20055;-69
2023/12/29 01:05:17;;;;;;;17.23;8.80;;;;;;;4.49;100.00;94042.09;5082878;28;20042;-70
2023/12/29 01:07:44;;;;;;;16.43;8.33;;;;;;;4.54;100.00;94051.84;5078774;28;20122;-69
2023/12/29 01:10:11;;;;;;;17.33;8.75;;;;;;;4.56;100.00;94038.66;5089460;28;20066;-69
2023/12/29 01:12:37;;;;;;;15.90;8.30;;;;;;;4.49;100.00;94044.03;5089498;28;20458;-69
2023/12/29 01:15:05;;;;;;;15.32;7.95;;;;;;;4.57;100.00;94043.72;5069974;28;20478;-69
2023/12/29 01:17:32;;;;;;;17.52;9.68;;;;;;;4.33;100.00;94042.31;5089315;28;20052;-70
2023/12/29 01:19:58;;;;;;;15.77;8.17;;;;;;;4.40;100.00;94031.50;5089005;28;20044;-69
2023/12/29 01:22:25;;;;;;;14.35;7.80;;;;;;;4.57;100.00;94045.66;5089629;28;20048;-70
2023/12/29 01:24:52;;;;;;;14.15;8.40;;;;;;;4.50;100.00;94040.91;5088671;28;20050;-69
2023/12/29 01:27:19;;;;;;;14.63;8.00;;;;;;;4.58;100.00;94044.50;5089163;28;20044;-69
2023/12/29 01:29:45;;;;;;;13.27;7.72;;;;;;;4.65;100.00;94030.19;5088546;28;20044;-70
2023/12/29 01:32:12;;;;;;;15.67;8.50;;;;;;;4.61;100.00;94038.31;5089492;28;20047;-69
2023/12/29 01:34:39;;;;;;;15.02;8.18;;;;;;;4.72;100.00;94054.72;5088892;28;20040;-68
2023/12/29 01:37:06;;;;;;;18.13;8.20;;;;;;;4.72;100.00;94044.63;5089416;28;20044;-69
2023/12/29 01:39:34;;;;;;;13.65;7.32;;;;;;;4.53;100.00;94053.00;5088877;28;20040;-69
2023/12/29 01:42:01;;;;;;;15.27;8.02;;;;;;;4.77;100.00;94060.59;5088653;28;20040;-69
2023/12/29 01:44:28;;;;;;;12.43;6.47;;;;;;;4.81;100.00;94055.22;5070975;28;20059;-69
2023/12/29 01:46:58;;;;;;;17.17;8.15;;;;;;;4.62;100.00;94052.69;5070783;28;20055;-70
2023/12/29 01:49:26;;;;;;;16.67;8.10;;;;;;;4.50;100.00;94053.72;5088920;28;20542;-69
2023/12/29 01:51:58;;;;;;;13.73;7.18;;;;;;;4.59;100.00;94057.72;5088700;28;20048;-69
2023/12/29 01:54:29;;;;;;;14.80;7.85;;;;;;;4.61;100.00;94060.06;5088977;28;20138;-69
2023/12/29 01:56:59;;;;;;;13.07;6.50;;;;;;;4.73;100.00;94046.19;5088378;28;20036;-72
2023/12/29 01:59:26;;;;;;;18.58;9.70;;;;;;;4.85;100.00;94056.00;5071264;28;20048;-69
2023/12/29 02:01:57;;;;;;;11.65;6.55;;;;;;;4.93;100.00;94060.34;5088273;28;20048;-69
2023/12/29 02:04:25;;;;;;;11.82;6.28;;;;;;;4.98;100.00;94048.34;5078722;28;20044;-69
2023/12/29 02:06:52;;;;;;;10.77;5.82;;;;;;;5.00;100.00;94046.03;5068496;28;20047;-69
2023/12/29 02:09:19;;;;;;;11.43;4.80;;;;;;;5.33;100.00;94036.16;5088258;28;20066;-69
2023/12/29 02:11:46;;;;;;;9.05;4.93;;;;;;;5.47;100.00;94035.47;5088613;28;20048;-69
2023/12/29 02:14:15;;;;;;;10.18;5.13;;;;;;;5.51;100.00;94026.16;5089007;28;20036;-69
2023/12/29 02:17:23;;;;;;;8.85;4.68;;;;;;;5.67;100.00;94028.56;5087197;28;20051;-67
2023/12/29 02:19:51;;;;;;;7.47;4.00;;;;;;;5.93;100.00;94026.75;5017998;28;20457;-70
2023/12/29 02:22:19;;;;;;;7.27;3.50;;;;;;;6.06;100.00;94016.34;5029800;28;20041;-70
2023/12/29 02:24:49;;;;;;;7.38;3.47;;;;;;;6.45;100.00;94008.25;5060794;28;20040;-69
2023/12/29 02:27:35;;;;;;;6.70;3.63;;;;;;;6.38;100.00;94003.56;5092255;28;20111;-69
2023/12/29 02:30:14;;;;;;;5.38;3.03;;;;;;;6.46;100.00;94000.84;5091763;28;20051;-69
2023/12/29 02:32:46;;;;;;;6.07;3.20;;;;;;;6.65;100.00;94000.50;5091557;28;20062;-69
2023/12/29 02:35:18;;;;;;;5.83;3.03;;;;;;;6.69;100.00;94008.69;5091952;28;20050;-69
2023/12/29 02:37:47;;;;;;;5.72;3.30;;;;;;;6.66;100.00;94007.53;5091856;28;20044;-69
2023/12/29 02:40:14;;;;;;;5.72;3.30;;;;;;;6.62;100.00;94008.66;5078610;28;20047;-70
2023/12/29 02:42:50;;;;;;;5.18;2.90;;;;;;;6.81;100.00;94008.28;5079704;28;20048;-67
2023/12/29 02:45:20;;;;;;;6.60;3.17;;;;;;;6.81;100.00;94016.47;5036687;28;20386;-70
2023/12/29 02:47:51;;;;;;;5.70;3.07;;;;;;;6.81;100.00;94005.56;5053376;28;20056;-69
2023/12/29 02:50:19;;;;;;;6.10;3.28;;;;;;;6.84;100.00;93996.63;5062681;28;20048;-70
2023/12/29 02:52:46;;;;;;;5.93;3.15;;;;;;;6.89;100.00;93993.50;5085145;28;20048;-69
2023/12/29 02:55:13;;;;;;;6.97;3.05;;;;;;;6.92;100.00;93992.72;5092005;28;20051;-70
2023/12/29 02:57:41;;;;;;;5.45;3.20;;;;;;;6.89;100.00;93982.56;5090323;28;20048;-69
2023/12/29 03:00:09;;;;;;;6.73;2.67;;;;;;;6.84;100.00;93995.81;5090753;28;20055;-69
2023/12/29 03:02:36;;;;;;;6.25;3.00;;;;;;;6.81;100.00;93991.94;5073801;28;20418;-69
2023/12/29 03:05:03;;;;;;;5.50;2.95;;;;;;;6.80;100.00;93987.63;5075457;28;20044;-70
2023/12/29 03:07:30;;;;;;;5.43;3.25;;;;;;;6.83;100.00;93991.53;5076160;28;20093;-71
2023/12/29 03:09:57;;;;;;;5.95;2.90;;;;;;;6.82;100.00;93988.00;5073494;28;20050;-69
2023/12/29 03:12:24;;;;;;;5.17;3.17;;;;;;;6.84;100.00;93985.72;5090498;28;20377;-69
2023/12/29 03:14:50;;;;;;;6.13;2.95;;;;;;;6.85;100.00;93997.41;5091000;28;20104;-69
2023/12/29 03:17:17;;;;;;;7.22;3.00;;;;;;;6.90;100.00;93986.88;5091161;28;20044;-69
2023/12/29 03:19:44;;;;;;;5.45;3.00;;;;;;;7.01;100.00;93986.88;5090783;28;20047;-69
2023/12/29 03:22:11;;;;;;;5.25;2.97;;;;;;;6.89;100.00;93988.03;5091351;28;20515;-69
2023/12/29 03:24:40;;;;;;;5.67;3.27;;;;;;;6.90;100.00;93977.88;5091339;28;20036;-69
2023/12/29 03:27:07;;;;;;;5.97;3.20;;;;;;;6.87;100.00;93984.13;5090332;28;20750;-70
2023/12/29 03:29:34;;;;;;;6.07;3.40;;;;;;;6.88;100.00;93975.56;5073215;28;20392;-71
2023/12/29 03:32:01;;;;;;;6.13;3.30;;;;;;;6.94;100.00;93984.94;5069198;28;20040;-69
2023/12/29 03:34:27;;;;;;;5.40;3.20;;;;;;;7.05;100.00;93979.44;5069613;28;20041;-69
2023/12/29 03:36:54;;;;;;;6.20;3.10;;;;;;;7.13;100.00;93969.31;5084608;28;20343;-71
2023/12/29 03:39:21;;;;;;;6.82;2.90;;;;;;;7.09;100.00;93971.28;5090919;28;20058;-69
2023/12/29 03:41:48;;;;;;;6.20;3.40;;;;;;;7.08;100.00;93965.00;5090502;28;20040;-69
2023/12/29 03:44:15;;;;;;;6.13;3.10;;;;;;;7.03;100.00;93970.09;5091078;28;20101;-70
2023/12/29 03:46:42;;;;;;;6.50;3.38;;;;;;;6.99;100.00;93959.97;5090432;28;20047;-69
2023/12/29 03:49:08;;;;;;;5.60;3.27;;;;;;;6.94;100.00;93973.22;5089752;28;20096;-69
2023/12/29 03:51:35;;;;;;;6.00;3.50;;;;;;;6.99;100.00;93970.09;5091039;28;20435;-70
2023/12/29 03:54:03;;;;;;;6.03;3.85;;;;;;;6.99;100.00;93970.09;5070347;28;20043;-69
2023/12/29 03:56:30;;;;;;;5.43;3.33;;;;;;;6.92;100.00;93972.81;5090847;28;20391;-71
2023/12/29 03:58:57;;;;;;;5.57;3.22;;;;;;;6.96;100.00;93959.97;5090324;28;20450;-70
2023/12/29 04:01:25;;;;;;;6.37;3.10;;;;;;;7.02;100.00;93965.81;5072352;28;20048;-69
2023/12/29 04:03:51;;;;;;;5.20;3.10;;;;;;;7.04;100.00;93968.91;5088542;28;20044;-69
2023/12/29 04:06:18;;;;;;;5.40;2.80;;;;;;;7.00;100.00;93972.44;5090453;28;20042;-69
2023/12/29 04:08:45;;;;;;;5.93;3.20;;;;;;;6.99;100.00;93964.66;5089946;28;20420;-69
2023/12/29 04:11:12;;;;;;;5.70;3.13;;;;;;;6.96;100.00;93968.16;5090601;28;20493;-70
2023/12/29 04:13:38;;;;;;;5.00;2.80;;;;;;;6.89;100.00;93965.44;5087320;28;20046;-67
2023/12/29 04:16:05;;;;;;;6.25;3.17;;;;;;;6.94;100.00;93956.84;5090513;28;20040;-69
2023/12/29 04:18:32;;;;;;;5.65;3.05;;;;;;;6.87;100.00;93962.31;5089192;28;20043;-69
2023/12/29 04:20:59;;;;;;;5.45;3.10;;;;;;;6.90;100.00;93953.34;5089683;28;20405;-70
2023/12/29 04:23:26;;;;;;;5.90;3.13;;;;;;;6.93;100.00;93966.22;5089903;28;20400;-70
2023/12/29 04:25:53;;;;;;;5.40;2.83;;;;;;;6.93;100.00;93958.78;5089722;28;20127;-69
2023/12/29 04:28:19;;;;;;;5.15;3.00;;;;;;;6.99;100.00;93964.66;5090158;28;20400;-70
2023/12/29 04:30:46;;;;;;;5.85;3.13;;;;;;;6.95;100.00;93972.06;5089497;28;20046;-69
2023/12/29 04:33:13;;;;;;;6.32;3.40;;;;;;;6.80;100.00;93968.53;5089962;28;20052;-69
2023/12/29 04:35:40;;;;;;;5.45;3.33;;;;;;;6.80;100.00;93966.59;5089506;28;20044;-70
2023/12/29 04:38:07;;;;;;;6.30;3.47;;;;;;;6.81;100.00;93961.94;5089969;28;20054;-70
2023/12/29 04:40:34;;;;;;;6.20;3.33;;;;;;;6.77;100.00;93959.19;5090180;28;20036;-71
2023/12/29 04:43:00;;;;;;;7.18;3.50;;;;;;;6.76;100.00;93965.03;5089130;28;20062;-69
2023/12/29 04:45:28;;;;;;;6.07;3.47;;;;;;;6.71;100.00;93968.16;5089924;28;20097;-69
2023/12/29 04:47:55;;;;;;;6.10;3.45;;;;;;;6.71;100.00;93962.72;5067646;28;20047;-69
2023/12/29 04:50:22;;;;;;;5.83;3.50;;;;;;;6.67;100.00;93962.69;5080521;28;20048;-69
2023/12/29 04:52:49;;;;;;;5.85;3.40;;;;;;;6.68;100.00;93960.75;5081244;28;20089;-69
2023/12/29 04:55:16;;;;;;;6.65;3.72;;;;;;;6.67;100.00;93956.47;5058730;28;20047;-69
2023/12/29 04:57:43;;;;;;;6.15;3.55;;;;;;;6.61;100.00;93958.81;5086340;28;20398;-71
2023/12/29 05:00:10;;;;;;;5.68;3.42;;;;;;;6.66;100.00;93955.69;5067802;28;20051;-69
2023/12/29 05:02:37;;;;;;;4.93;3.00;;;;;;;6.64;100.00;93965.41;5085030;28;20036;-69
2023/12/29 05:05:04;;;;;;;6.78;3.30;;;;;;;6.70;100.00;93959.22;5088656;28;20707;-69
2023/12/29 05:07:31;;;;;;;5.90;3.50;;;;;;;6.77;100.00;93967.38;5088224;28;20419;-69
2023/12/29 05:09:58;;;;;;;5.53;3.30;;;;;;;6.80;100.00;93957.63;5089271;28;20366;-69
2023/12/29 05:12:24;;;;;;;5.65;2.85;;;;;;;6.85;100.00;93956.47;5089445;28;20394;-71
2023/12/29 05:14:51;;;;;;;6.13;2.90;;;;;;;6.72;100.00;93959.59;5088734;28;20040;-69
2023/12/29 05:17:18;;;;;;;5.82;3.13;;;;;;;6.67;100.00;93965.44;5089451;28;20036;-69
2023/12/29 05:19:45;;;;;;;5.28;2.80;;;;;;;6.66;100.00;93969.34;5088311;28;20052;-70
2023/12/29 05:22:15;;;;;;;6.75;2.90;;;;;;;6.66;100.00;93965.81;5089226;28;20040;-69
2023/12/29 05:24:42;;;;;;;5.28;2.80;;;;;;;6.72;100.00;93973.22;5088581;28;20056;-69
2023/12/29 05:27:09;;;;;;;5.13;2.97;;;;;;;6.72;100.00;93975.16;5089040;28;20040;-69
2023/12/29 05:29:36;;;;;;;4.90;2.70;;;;;;;6.71;100.00;93966.22;5089173;28;20040;-69
2023/12/29 05:32:04;;;;;;;5.38;2.90;;;;;;;6.67;100.00;93967.38;5087801;28;20039;-69
2023/12/29 05:34:30;;;;;;;6.22;2.50;;;;;;;6.75;100.00;93969.72;5088872;28;20382;-69
2023/12/29 05:36:57;;;;;;;4.05;2.20;;;;;;;6.75;100.00;93972.44;5088898;28;20055;-69
2023/12/29 05:39:24;;;;;;;5.27;2.40;;;;;;;6.79;100.00;93973.22;5089194;28;20385;-69
2023/12/29 05:41:51;;;;;;;4.30;2.45;;;;;;;6.77;100.00;93961.16;5088642;28;20404;-69
2023/12/29 05:44:17;;;;;;;7.60;4.32;;;;;;;6.70;100.00;93967.38;5089040;28;20477;-69
2023/12/29 05:46:47;;;;;;;10.80;6.35;;;;;;;6.63;100.00;93964.66;5088461;28;20048;-69
2023/12/29 05:49:14;;;;;;;5.90;3.40;;;;;;;6.60;100.00;93955.31;5089046;28;20043;-69
2023/12/29 05:51:41;;;;;;;4.37;2.60;;;;;;;6.62;100.00;93970.47;5088806;28;20052;-67
2023/12/29 05:54:08;;;;;;;21.27;10.13;;;;;;;6.74;100.00;93970.09;5072224;28;20042;-69
2023/12/29 05:56:35;;;;;;;19.73;10.02;;;;;;;6.74;100.00;93960.00;5079374;28;20036;-69
2023/12/29 05:59:01;;;;;;;18.92;10.38;;;;;;;6.74;100.00;93965.44;5092550;28;20040;-69
2023/12/29 06:01:28;;;;;;;4.97;2.53;;;;;;;6.60;100.00;93968.94;5093026;28;20048;-69
2023/12/29 06:03:55;;;;;;;30.77;15.93;;;;;;;6.61;100.00;93972.44;5091399;28;20390;-69
2023/12/29 06:06:22;;;;;;;5.28;3.03;;;;;;;6.55;100.00;93977.50;5074574;28;20563;-68
2023/12/29 06:08:48;;;;;;;5.15;2.78;;;;;;;6.44;100.00;93982.16;5074234;28;20048;-69
2023/12/29 06:11:16;;;;;;;52.70;24.25;;;;;;;6.42;100.00;93978.25;5074659;28;20060;-69
2023/12/29 06:13:43;;;;;;;54.63;25.23;;;;;;;6.28;100.00;93982.53;5092342;28;20413;-68
2023/12/29 06:16:18;;;;;;;56.37;27.43;;;;;;;6.00;100.00;93980.50;5092691;28;20044;-69
2023/12/29 06:18:45;;;;;;;17.63;7.38;;;;;;;5.94;100.00;93980.06;5092146;28;20040;-69
2023/12/29 06:21:12;;;;;;;14.90;6.45;;;;;;;5.82;100.00;93974.97;5092502;28;20044;-68
2023/12/29 06:23:39;;;;;;;39.22;23.10;;;;;;;5.70;100.00;93961.69;5092017;28;20054;-66
2023/12/29 06:26:13;;;;;;;21.27;9.95;;;;;;;5.61;100.00;93978.38;5091203;28;20093;-69
2023/12/29 06:28:40;;;;;;;14.10;6.50;;;;;;;5.52;100.00;93977.94;5070579;28;20062;-69
2023/12/29 06:31:07;;;;;;;15.05;6.55;;;;;;;5.43;100.00;93983.72;5085093;28;20034;-68
2023/12/29 06:33:34;;;;;;;18.80;11.50;;;;;;;5.36;100.00;93979.03;5092198;28;20048;-68
2023/12/29 06:36:01;;;;;;;19.90;12.57;;;;;;;5.31;100.00;93975.88;5091806;28;20036;-69
2023/12/29 06:38:28;;;;;;;16.00;8.70;;;;;;;5.28;100.00;93974.72;5079128;28;20458;-69
2023/12/29 06:40:55;;;;;;;20.90;8.10;;;;;;;5.19;100.00;93963.38;5091663;28;20066;-69
2023/12/29 06:43:22;;;;;;;23.70;12.45;;;;;;;5.16;100.00;93956.75;5092594;28;20052;-68
2023/12/29 06:45:48;;;;;;;20.20;8.40;;;;;;;5.13;100.00;93967.63;5070557;28;20483;-69
2023/12/29 06:48:15;;;;;;;16.08;6.97;;;;;;;5.10;100.00;93974.59;5091968;28;20040;-69
2023/12/29 06:50:44;;;;;;;19.35;7.90;;;;;;;5.11;100.00;93986.25;5090078;28;20455;-69
2023/12/29 06:53:11;;;;;;;12.43;5.90;;;;;;;5.14;100.00;93991.72;5092294;28;20046;-71
2023/12/29 06:55:38;;;;;;;17.63;7.88;;;;;;;5.20;100.00;93981.28;5091636;28;20038;-69
2023/12/29 06:58:05;;;;;;;15.75;7.57;;;;;;;5.27;100.00;93975.09;5090987;28;20847;-69
2023/12/29 07:00:31;;;;;;;12.90;6.88;;;;;;;5.28;100.00;93982.88;5091648;28;20040;-68
2023/12/29 07:02:59;;;;;;;13.63;6.78;;;;;;;5.41;100.00;93977.88;5090017;28;20389;-69
2023/12/29 07:05:26;;;;;;;16.97;8.27;;;;;;;5.49;100.00;93989.59;5072789;28;20089;-69
2023/12/29 07:07:53;;;;;;;12.07;6.20;;;;;;;5.46;100.00;93990.38;5079552;28;20489;-69
2023/12/29 07:10:20;;;;;;;10.23;5.68;;;;;;;5.52;100.00;93988.84;5091783;28;20062;-69
2023/12/29 07:12:47;;;;;;;14.15;7.40;;;;;;;5.59;100.00;93988.84;5091150;28;20096;-69
2023/12/29 07:15:14;;;;;;;12.63;6.78;;;;;;;5.60;100.00;93993.16;5091580;28;20043;-69
2023/12/29 07:17:41;;;;;;;12.37;6.03;;;;;;;5.67;100.00;94000.56;5091162;28;20063;-67
2023/12/29 07:20:08;;;;;;;11.05;6.07;;;;;;;5.66;100.00;94001.75;5091292;28;20502;-69
2023/12/29 07:22:35;;;;;;;11.05;5.57;;;;;;;5.70;100.00;93997.88;5091384;28;20157;-69
2023/12/29 07:25:02;;;;;;;11.45;5.80;;;;;;;5.76;100.00;94001.00;5091113;28;20044;-70
2023/12/29 07:27:29;;;;;;;11.32;5.43;;;;;;;5.75;100.00;93999.44;5091023;28;20044;-71
2023/12/29 07:29:55;;;;;;;13.50;6.70;;;;;;;5.70;100.00;93999.81;5090773;28;20050;-69
2023/12/29 07:32:22;;;;;;;10.18;5.75;;;;;;;5.72;100.00;94005.66;5090844;28;20051;-69
2023/12/29 07:34:49;;;;;;;9.77;5.55;;;;;;;5.73;100.00;93999.03;5072899;28;20036;-69
2023/12/29 07:37:16;;;;;;;10.90;6.18;;;;;;;5.80;100.00;93999.84;5090859;28;20084;-69
2023/12/29 07:39:43;;;;;;;10.30;6.15;;;;;;;5.88;100.00;94005.34;5090400;28;20039;-69
2023/12/29 07:42:10;;;;;;;11.37;5.97;;;;;;;5.84;100.00;94010.00;5091091;28;20048;-71
2023/12/29 07:44:37;;;;;;;12.07;6.40;;;;;;;5.86;100.00;94004.94;5090633;28;20044;-69
2023/12/29 07:47:04;;;;;;;10.65;5.90;;;;;;;5.79;100.00;94001.03;5090012;28;20588;-69
2023/12/29 07:49:31;;;;;;;10.77;6.15;;;;;;;5.84;100.00;94004.56;5091054;28;20040;-69
2023/12/29 07:51:59;;;;;;;10.55;5.68;;;;;;;5.86;100.00;94004.94;5072454;28;20100;-69
2023/12/29 07:54:26;;;;;;;9.93;5.40;;;;;;;5.87;100.00;94012.72;5090091;28;20040;-69
2023/12/29 07:56:53;;;;;;;10.18;4.82;;;;;;;5.86;100.00;94013.88;5090331;28;20399;-69
2023/12/29 07:59:20;;;;;;;9.68;5.53;;;;;;;5.91;100.00;94018.94;5090452;28;20050;-69
2023/12/29 08:01:47;;;;;;;14.98;7.80;;;;;;;5.86;100.00;94024.78;5072172;28;20050;-69
2023/12/29 08:04:13;;;;;;;14.13;7.43;;;;;;;5.91;100.00;94023.63;5075590;28;20048;-69
2023/12/29 08:06:41;;;;;;;11.30;6.10;;;;;;;5.93;100.00;94016.63;5090108;28;20044;-69
2023/12/29 08:09:08;;;;;;;8.63;5.00;;;;;;;5.88;100.00;94027.91;5089092;28;20050;-69
2023/12/29 08:11:35;;;;;;;8.20;4.93;;;;;;;5.89;100.00;94028.69;5090618;28;20047;-70
2023/12/29 08:14:02;;;;;;;8.80;5.03;;;;;;;5.88;100.00;94022.47;5088876;28;20044;-69
2023/12/29 08:16:28;;;;;;;11.27;6.43;;;;;;;5.94;100.00;94020.91;5090270;28;20048;-69
2023/12/29 08:18:55;;;;;;;9.00;5.40;;;;;;;6.08;100.00;94020.22;5068417;28;20040;-69
2023/12/29 08:21:22;;;;;;;9.02;4.80;;;;;;;6.10;100.00;94017.13;5083549;28;20044;-69
2023/12/29 08:23:49;;;;;;;9.95;5.30;;;;;;;6.20;100.00;94024.56;5072049;28;20076;-69
2023/12/29 08:26:16;;;;;;;10.38;6.45;;;;;;;6.32;100.00;94026.16;5084873;28;20036;-69
2023/12/29 08:28:43;;;;;;;9.32;5.47;;;;;;;6.35;100.00;94019.91;5089580;28;20415;-71
2023/12/29 08:31:09;;;;;;;10.50;5.70;;;;;;;6.37;100.00;94018.34;5089783;28;20054;-69
2023/12/29 08:33:37;;;;;;;9.48;5.47;;;;;;;6.49;100.00;94024.63;5089987;28;20040;-69
2023/12/29 08:36:04;;;;;;;11.63;5.75;;;;;;;6.55;100.00;94023.06;5088758;28;21714;-69
2023/12/29 08:38:31;;;;;;;9.30;5.47;;;;;;;6.40;100.00;94023.03;5089791;28;20042;-69
2023/12/29 08:40:59;;;;;;;8.60;5.05;;;;;;;6.40;100.00;94017.59;5088918;28;20048;-70
2023/12/29 08:43:26;;;;;;;8.47;4.90;;;;;;;6.39;100.00;94029.66;5090068;28;20044;-69
2023/12/29 08:45:54;;;;;;;8.02;4.72;;;;;;;6.38;100.00;94024.59;5089219;28;20055;-71
2023/12/29 08:48:21;;;;;;;8.73;5.32;;;;;;;6.29;100.00;94019.50;5090093;28;20040;-69
2023/12/29 08:50:49;;;;;;;7.80;4.38;;;;;;;6.31;100.00;94019.13;5087815;28;20074;-70
2023/12/29 08:53:16;;;;;;;10.63;5.70;;;;;;;6.37;100.00;94012.91;5078109;28;20109;-68
2023/12/29 08:55:43;;;;;;;8.57;4.80;;;;;;;6.47;100.00;94021.50;5087821;28;20047;-69
2023/12/29 08:58:10;;;;;;;8.88;5.15;;;;;;;6.53;100.00;94014.50;5089748;28;20044;-69
2023/12/29 09:00:37;;;;;;;11.85;6.55;;;;;;;6.56;100.00;94024.63;5089356;28;20040;-69
2023/12/29 09:03:04;;;;;;;11.65;7.22;;;;;;;6.42;100.00;94024.59;5088815;28;20363;-71
2023/12/29 09:05:31;;;;;;;10.40;6.43;;;;;;;6.57;100.00;94026.97;5089451;28;20032;-69
2023/12/29 09:07:58;;;;;;;11.20;6.33;;;;;;;6.58;100.00;94031.25;5087717;28;20040;-70
2023/12/29 09:10:25;;;;;;;9.38;5.70;;;;;;;6.66;100.00;94032.06;5089323;28;20052;-69
2023/12/29 09:12:52;;;;;;;10.23;6.13;;;;;;;6.65;100.00;94029.72;5089110;28;20062;-69
2023/12/29 09:15:18;;;;;;;9.20;5.13;;;;;;;6.66;100.00;94018.44;5089390;28;20108;-70
2023/12/29 09:17:45;;;;;;;9.63;5.85;;;;;;;6.74;100.00;94024.63;5089149;28;20382;-69
2023/12/29 09:20:14;;;;;;;9.23;5.30;;;;;;;6.68;100.00;94031.66;5067410;28;20041;-70
2023/12/29 09:22:41;;;;;;;10.75;5.97;;;;;;;6.81;100.00;94030.13;5072560;28;20055;-69
2023/12/29 09:25:08;;;;;;;11.68;6.60;;;;;;;6.82;100.00;94039.84;5069386;28;20534;-69
2023/12/29 09:27:35;;;;;;;11.13;6.35;;;;;;;6.85;100.00;94036.34;5085655;28;20040;-69
2023/12/29 09:30:03;;;;;;;10.13;6.15;;;;;;;6.71;100.00;94028.16;5092775;28;20044;-69
2023/12/29 09:32:30;;;;;;;9.77;6.00;;;;;;;6.74;100.00;94030.91;5093376;28;20475;-69
2023/12/29 09:34:57;;;;;;;10.20;5.70;;;;;;;6.83;100.00;94035.19;5092616;28;20385;-69
2023/12/29 09:37:24;;;;;;;9.00;5.10;;;;;;;6.99;100.00;94039.09;5072837;28;20047;-70
2023/12/29 09:39:51;;;;;;;8.60;4.55;;;;;;;6.91;100.00;94040.25;5092729;28;20051;-69
2023/12/29 09:42:22;;;;;;;9.07;5.10;;;;;;;6.97;100.00;94044.16;5093379;28;20066;-69
2023/12/29 09:44:50;;;;;;;7.93;4.50;;;;;;;6.97;100.00;94033.25;5092753;28;20048;-69
2023/12/29 09:47:25;;;;;;;8.25;4.60;;;;;;;7.17;100.00;94041.03;5093278;28;20042;-70
2023/12/29 09:49:53;;;;;;;8.35;4.90;;;;;;;7.24;100.00;94032.84;5092676;28;20052;-69
2023/12/29 09:52:22;;;;;;;13.60;7.13;;;;;;;7.40;100.00;94038.69;5093274;28;20066;-70
2023/12/29 09:54:52;;;;;;;8.95;5.10;;;;;;;7.56;100.00;94029.28;5092599;28;20040;-69
2023/12/29 09:57:20;;;;;;;9.10;4.50;;;;;;;7.92;100.00;94031.94;5091539;28;20040;-70
2023/12/29 09:59:51;;;;;;;7.40;4.20;;;;;;;8.23;100.00;94024.00;5092058;28;20044;-69
2023/12/29 10:02:20;;;;;;;22.15;10.52;;;;;;;8.20;100.00;94015.41;5092639;28;20043;-71
2023/12/29 10:04:47;;;;;;;8.98;4.95;;;;;;;9.22;100.00;94018.31;5092164;28;20366;-70
2023/12/29 10:07:28;;;;;;;7.80;4.40;;;;;;;8.64;100.00;94024.19;5092961;28;20048;-70
2023/12/29 10:09:57;;;;;;;7.53;4.93;;;;;;;8.93;100.00;94013.06;5092331;28;20105;-71
2023/12/29 10:12:25;;;;;;;6.70;3.90;;;;;;;9.87;100.00;94018.47;5092631;28;20137;-69
2023/12/29 10:15:05;;;;;;;6.53;4.18;;;;;;;9.40;100.00;94013.47;5091898;28;20052;-69
2023/12/29 10:18:02;;;;;;;6.30;3.90;;;;;;;8.72;100.00;94014.78;5092600;28;20048;-69
2023/12/29 10:20:48;;;;;;;6.30;3.42;;;;;;;8.20;100.00;94006.44;5091721;28;20039;-69
2023/12/29 10:23:31;;;;;;;6.27;3.80;;;;;;;7.72;100.00;94010.53;5081020;28;21326;-69
2023/12/29 10:25:58;;;;;;;6.93;3.78;;;;;;;7.48;100.00;94012.13;5071713;28;20067;-69
2023/12/29 10:28:25;;;;;;;8.48;4.65;;;;;;;7.43;100.00;94015.28;5092383;28;20032;-69
2023/12/29 10:30:52;;;;;;;6.63;4.07;;;;;;;7.22;100.00;94015.31;5091885;28;20052;-70
2023/12/29 10:33:24;;;;;;;6.80;4.15;;;;;;;7.13;100.00;94002.06;5092298;28;20043;-69
2023/12/29 10:36:03;;;;;;;9.13;4.20;;;;;;;7.14;100.00;94003.59;5092113;28;20508;-70
2023/12/29 10:38:30;;;;;;;6.88;3.72;;;;;;;7.17;100.00;94002.84;5090630;28;20040;-70
2023/12/29 10:41:26;;;;;;;7.30;3.97;;;;;;;7.15;100.00;93992.31;5090293;28;20048;-70
2023/12/29 10:43:54;;;;;;;6.97;3.80;;;;;;;7.11;100.00;93990.75;5068325;28;20048;-69
2023/12/29 10:46:21;;;;;;;7.03;4.10;;;;;;;7.20;100.00;93991.91;5089872;28;20040;-69
2023/12/29 10:48:48;;;;;;;9.30;4.97;;;;;;;7.14;100.00;93987.22;5073635;28;20062;-71
2023/12/29 10:51:15;;;;;;;7.13;4.60;;;;;;;7.18;100.00;93982.53;5092055;28;20054;-69
2023/12/29 10:53:54;;;;;;;8.02;4.60;;;;;;;7.33;100.00;93984.09;5091559;28;20048;-70
2023/12/29 10:56:22;;;;;;;8.68;4.47;;;;;;;7.19;100.00;93987.63;5091743;28;20047;-69
2023/12/29 10:59:03;;;;;;;12.05;4.95;;;;;;;7.10;100.00;93981.81;5091181;28;20112;-69
2023/12/29 11:01:39;;;;;;;8.63;5.10;;;;;;;7.07;100.00;93987.25;5091964;28;20421;-70
2023/12/29 11:04:06;;;;;;;8.85;4.70;;;;;;;7.06;100.00;93989.19;5091031;28;20664;-69
2023/12/29 11:06:46;;;;;;;9.55;4.75;;;;;;;7.06;100.00;93991.13;5091452;28;20044;-66
2023/12/29 11:09:13;;;;;;;8.07;4.85;;;;;;;7.02;100.00;93985.69;5090982;28;20778;-66
2023/12/29 11:11:41;;;;;;;8.27;4.65;;;;;;;7.10;100.00;93986.47;5090712;28;20432;-64
2023/12/29 11:14:10;;;;;;;7.43;4.57;;;;;;;7.05;100.00;93978.69;5091715;28;20040;-66
2023/12/29 11:16:39;;;;;;;8.52;5.00;;;;;;;7.04;100.00;93980.59;5091469;28;20052;-69
2023/12/29 11:19:09;;;;;;;7.43;4.20;;;;;;;7.12;100.00;93975.94;5090437;28;20275;-69
2023/12/29 11:21:37;;;;;;;10.05;5.13;;;;;;;7.28;100.00;93968.09;5091455;28;20047;-71
2023/12/29 11:24:04;;;;;;;7.60;4.75;;;;;;;7.47;100.00;93974.31;5071991;28;20405;-72
2023/12/29 11:26:31;;;;;;;8.67;5.10;;;;;;;7.60;100.00;93972.72;5077726;28;20093;-69
2023/12/29 11:28:58;;;;;;;8.18;4.78;;;;;;;7.69;100.00;93972.31;5089999;28;20040;-70
2023/12/29 11:31:25;;;;;;;8.95;4.97;;;;;;;7.89;100.00;93967.16;5091145;28;20416;-68
2023/12/29 11:34:02;;;;;;;7.57;4.20;;;;;;;7.79;100.00;93969.53;5090309;28;20536;-68